createdAt,value
2019-01-30T00:04:10.715Z,7.43
2019-01-30T00:10:05.675Z,8.3
2019-01-30T00:16:00.710Z,7.41
2019-01-30T00:21:55.694Z,7.79
2019-01-30T00:27:50.678Z,7.4
2019-01-30T00:33:46.018Z,8.28
2019-01-30T00:39:40.700Z,7.62
2019-01-30T00:45:35.698Z,7.52
2019-01-30T00:51:30.703Z,7.64
2019-01-30T00:57:25.758Z,7.49
2019-01-30T01:03:20.722Z,7.8
2019-01-30T01:09:15.773Z,7.29
2019-01-30T01:15:10.750Z,6.57
2019-01-30T01:21:05.734Z,7.09
2019-01-30T01:27:00.749Z,7.3
2019-01-30T01:32:55.761Z,7.12
2019-01-30T01:38:50.745Z,7.38
2019-01-30T01:44:45.749Z,6.57
2019-01-30T01:50:40.760Z,7.84
2019-01-30T01:56:35.734Z,6.93
2019-01-30T02:02:30.790Z,7.25
2019-01-30T02:08:25.774Z,6.87
2019-01-30T02:14:20.803Z,6.55
2019-01-30T02:20:15.778Z,7.02
2019-01-30T02:32:05.816Z,7.15
2019-01-30T02:32:05.828Z,6.9
2019-01-30T02:38:00.769Z,6.2
2019-01-30T02:43:55.787Z,6.16
2019-01-30T02:49:51.066Z,6.38
2019-01-30T02:55:45.789Z,6.08
2019-01-30T03:01:40.778Z,6.27
2019-01-30T03:07:35.788Z,6.15
2019-01-30T03:13:30.838Z,5.67
2019-01-30T03:19:25.797Z,5.67
2019-01-30T03:25:20.853Z,5.43
2019-01-30T03:31:18.152Z,6.14
2019-01-30T03:37:10.814Z,6.08
2019-01-30T03:43:05.851Z,5.27
2019-01-30T03:49:00.798Z,5.78
2019-01-30T03:54:55.796Z,5.38
2019-01-30T04:00:50.793Z,5.71
2019-01-30T04:06:46.154Z,5.48
2019-01-30T04:12:40.814Z,5.51
2019-01-30T04:18:35.847Z,6.03
2019-01-30T04:24:30.817Z,5.56
2019-01-30T04:30:25.833Z,5.19
2019-01-30T04:36:20.836Z,5.59
2019-01-30T04:42:15.828Z,5.08
2019-01-30T04:48:10.836Z,5.22
2019-01-30T04:54:05.832Z,5.56
2019-01-30T05:00:00.833Z,4.86
2019-01-30T05:05:55.834Z,5.58
2019-01-30T05:11:50.850Z,5.44
2019-01-30T05:17:46.133Z,4.82
2019-01-30T05:23:40.838Z,5.2
2019-01-30T05:29:35.950Z,4.92
2019-01-30T05:35:30.874Z,5.45
2019-01-30T05:41:25.873Z,4.78
2019-01-30T05:47:20.863Z,3.99
2019-01-30T05:53:15.858Z,4.23
2019-01-30T05:59:10.873Z,4.7
2019-01-30T06:05:05.871Z,3.77
2019-01-30T06:11:00.899Z,4.2
2019-01-30T06:16:55.878Z,4.83
2019-01-30T06:22:50.892Z,4.47
2019-01-30T06:28:45.971Z,5.35
2019-01-30T06:34:40.896Z,5.47
2019-01-30T06:40:35.890Z,6.24
2019-01-30T06:46:30.880Z,5.16
2019-01-30T06:52:25.950Z,5.4
2019-01-30T06:58:20.895Z,4.57
2019-01-30T07:04:15.914Z,5.15
2019-01-30T07:10:10.909Z,6.55
2019-01-30T07:16:05.913Z,6.63
2019-01-30T07:22:00.924Z,4.96
2019-01-30T07:27:55.929Z,5.04
2019-01-30T07:33:50.957Z,6.44
2019-01-30T07:39:46.221Z,5.83
2019-01-30T07:45:40.909Z,5.36
2019-01-30T07:51:35.931Z,5.68
2019-01-30T07:57:30.945Z,5.68
2019-01-30T08:03:25.966Z,6.09
2019-01-30T08:09:20.969Z,5.79
2019-01-30T08:15:15.962Z,4.7
2019-01-30T08:21:10.925Z,4.81
2019-01-30T08:27:06.316Z,4.58
2019-01-30T08:33:04.396Z,4.23
2019-01-30T08:38:55.958Z,4.08
2019-01-30T08:50:45.982Z,5.01
2019-01-30T08:50:46.005Z,5.01
2019-01-30T08:56:52.273Z,3.96
2019-01-30T09:02:36.005Z,4.31
2019-01-30T09:08:31.006Z,3.94
2019-01-30T09:14:25.986Z,4.46
2019-01-30T09:20:20.969Z,5.67
2019-01-30T09:26:15.978Z,7.17
2019-01-30T09:32:10.999Z,7.7
2019-01-30T09:38:06.239Z,7.7
2019-01-30T09:44:01.013Z,6.22
2019-01-30T09:49:56.021Z,6.47
2019-01-30T09:55:51.002Z,6.85
2019-01-30T10:01:46.304Z,6.38
2019-01-30T10:07:41.008Z,6.45
2019-01-30T10:13:37.450Z,3.27
2019-01-30T10:19:31.004Z,2.85
2019-01-30T10:25:26.044Z,6.1
2019-01-30T10:31:21.089Z,6.11
2019-01-30T10:37:16.029Z,4.77
2019-01-30T10:43:11.016Z,6.25
2019-01-30T10:49:06.068Z,7.88
2019-01-30T10:55:01.035Z,5.68
2019-01-30T11:00:56.036Z,6.4
2019-01-30T11:06:51.353Z,2.68
2019-01-30T11:12:46.370Z,3.18
2019-01-30T11:18:41.049Z,3.34
2019-01-30T11:30:31.056Z,4.2
2019-01-30T11:30:31.088Z,6.12
2019-01-30T11:36:26.056Z,4.61
2019-01-30T11:42:21.122Z,5.71
2019-01-30T11:48:16.050Z,5.81
2019-01-30T11:54:11.096Z,6.85
2019-01-30T12:00:06.082Z,5.83
2019-01-30T12:06:01.079Z,6.29
2019-01-30T12:11:56.054Z,5.35
2019-01-30T12:17:51.287Z,4.42
2019-01-30T12:23:46.375Z,5.29
2019-01-30T12:29:41.077Z,6.22
2019-01-30T12:35:36.083Z,6.16
2019-01-30T12:41:31.155Z,6.58
2019-01-30T12:47:26.091Z,6.16
2019-01-30T12:53:21.110Z,6.25
2019-01-30T12:59:16.113Z,7.02
2019-01-30T13:05:11.116Z,6.59
2019-01-30T13:17:01.134Z,6.48
2019-01-30T13:17:01.148Z,6.22
2019-01-30T13:22:56.239Z,6.91
2019-01-30T13:28:51.127Z,6.93
2019-01-30T13:34:48.853Z,7.11
2019-01-30T13:40:41.195Z,6.98
2019-01-30T13:46:36.136Z,6.9
2019-01-30T13:52:31.128Z,10.53
2019-01-30T13:58:26.147Z,6.77
2019-01-30T14:04:21.185Z,4.97
2019-01-30T14:10:16.144Z,5.01
2019-01-30T14:16:11.182Z,3.82
2019-01-30T14:22:06.161Z,7.42
2019-01-30T14:28:01.215Z,7.96
2019-01-30T14:33:56.347Z,5.29
2019-01-30T14:39:51.859Z,3.23
2019-01-30T14:45:46.217Z,3.27
2019-01-30T14:51:41.189Z,3.43
2019-01-30T14:57:36.165Z,2.73
2019-01-30T15:03:31.200Z,3.14
2019-01-30T15:09:26.184Z,4.27
2019-01-30T15:15:21.181Z,3.78
2019-01-30T15:21:16.180Z,3.77
2019-01-30T15:27:11.253Z,3.89
2019-01-30T15:33:06.188Z,2.57
2019-01-30T15:39:01.189Z,2.52
2019-01-30T15:44:56.200Z,2.33
2019-01-30T15:50:51.484Z,3.67
2019-01-30T15:56:46.205Z,3.63
2019-01-30T16:02:41.199Z,4.82
2019-01-30T16:08:36.203Z,9.41
2019-01-30T16:14:31.231Z,5.33
2019-01-30T16:20:26.246Z,4.69
2019-01-30T16:26:21.243Z,4.5
2019-01-30T16:32:16.242Z,3.61
2019-01-30T16:38:11.195Z,3.1
2019-01-30T16:44:06.274Z,2.38
2019-01-30T16:50:01.253Z,4.05
2019-01-30T16:55:56.242Z,3.45
2019-01-30T17:01:51.533Z,2.59
2019-01-30T17:07:46.256Z,8.09
2019-01-30T17:13:41.242Z,6.8
2019-01-30T17:19:36.252Z,4.94
2019-01-30T17:25:31.257Z,5.06
2019-01-30T17:31:26.238Z,4.91
2019-01-30T17:37:21.253Z,6.23
2019-01-30T17:43:16.249Z,6.47
2019-01-30T17:49:11.280Z,6.27
2019-01-30T17:55:06.259Z,7.16
2019-01-30T18:01:01.274Z,7.83
2019-01-30T18:06:56.260Z,8.47
2019-01-30T18:12:51.269Z,8.95
2019-01-30T18:18:46.280Z,9.77
2019-01-30T18:24:41.280Z,7.36
2019-01-30T18:30:36.300Z,5.54
2019-01-30T18:36:40.579Z,5.92
2019-01-30T18:42:26.313Z,7.11
2019-01-30T18:48:21.306Z,6.53
2019-01-30T18:54:16.329Z,6.83
2019-01-30T19:00:11.301Z,6.5
2019-01-30T19:06:06.313Z,7.78
2019-01-30T19:12:01.296Z,6.06
2019-01-30T19:17:56.308Z,6.87
2019-01-30T19:23:51.350Z,7.03
2019-01-30T19:29:46.347Z,6.82
2019-01-30T19:35:41.318Z,8.39
2019-01-30T19:41:36.356Z,6.96
2019-01-30T19:47:31.369Z,7.67
2019-01-30T19:53:26.335Z,7.97
2019-01-30T19:59:21.331Z,7.2
2019-01-30T20:05:16.328Z,8.48
2019-01-30T20:11:11.365Z,8.4
2019-01-30T20:17:06.402Z,8.02
2019-01-30T20:23:01.359Z,8.36
2019-01-30T20:28:56.364Z,8.63
2019-01-30T20:34:51.644Z,9.01
2019-01-30T20:40:46.340Z,10.23
2019-01-30T20:46:41.365Z,11.17
2019-01-30T20:52:36.398Z,10.67
2019-01-30T20:58:31.375Z,10.66
2019-01-30T21:04:26.363Z,9.9
2019-01-30T21:10:21.403Z,10.1
2019-01-30T21:16:16.369Z,10.2
2019-01-30T21:22:11.379Z,9.48
2019-01-30T21:28:06.398Z,8.89
2019-01-30T21:34:01.385Z,10.38
2019-01-30T21:39:56.514Z,10.16
2019-01-30T21:45:51.577Z,11.57
2019-01-30T21:51:46.415Z,11.27
2019-01-30T21:57:41.421Z,11.19
2019-01-30T22:03:36.408Z,9.56
2019-01-30T22:09:31.432Z,9.56
2019-01-30T22:15:26.446Z,8.62
2019-01-30T22:21:21.398Z,10.49
2019-01-30T22:27:16.404Z,10.94
2019-01-30T22:33:11.415Z,11.84
2019-01-30T22:39:06.478Z,11.91
2019-01-30T22:45:01.514Z,11.96
2019-01-30T22:50:56.419Z,13.22
2019-01-30T22:56:51.732Z,12.65
2019-01-30T23:02:46.423Z,12.75
2019-01-30T23:08:41.430Z,13.6
2019-01-30T23:14:36.423Z,13.3
2019-01-30T23:20:31.465Z,12.91
2019-01-30T23:26:26.467Z,13.58
2019-01-30T23:32:21.452Z,13.58
2019-01-30T23:38:16.490Z,12.02
2019-01-30T23:44:11.456Z,10.95
2019-01-30T23:50:06.462Z,12.4
2019-01-30T23:56:01.463Z,12.05
